Time;durP1;ratioP1;P1;durP2;ratioP2;P2;SDS_P1;SDS_P2;PMS_P1;PMS_P2;Temp;Humidity;BMP_temperature;BMP_pressure;BME280_temperature;BME280_humidity;BME280_pressure;Samples;Min_cycle;Max_cycle;Signal;HPM_P1;HPM_P2
2022/11/23 00:01:37;;;;;;;4.50;1.27;;;17.10;71.60;;;;;;10574743;27;20499;-35
2022/11/23 00:06:40;;;;;;;2.25;0.95;;;17.20;70.60;;;;;;10578027;27;20035;-30
2022/11/23 00:11:43;;;;;;;2.95;1.20;;;17.70;67.90;;;;;;10578020;27;20062;-34
2022/11/23 00:16:45;;;;;;;3.58;1.50;;;17.90;66.50;;;;;;10576225;27;20048;-30
2022/11/23 00:21:47;;;;;;;3.93;1.47;;;17.50;68.00;;;;;;10582816;27;20088;-29
2022/11/23 00:26:50;;;;;;;4.07;1.80;;;17.40;69.70;;;;;;10579108;27;20051;-30
2022/11/23 00:31:52;;;;;;;3.50;1.77;;;16.10;75.40;;;;;;10584463;27;20060;-28
2022/11/23 00:36:54;;;;;;;6.17;2.57;;;15.70;76.30;;;;;;10582875;27;20549;-36
2022/11/23 00:41:57;;;;;;;3.33;1.47;;;15.40;81.10;;;;;;10577060;27;20047;-32
2022/11/23 00:46:59;;;;;;;5.05;2.13;;;17.20;70.70;;;;;;10581078;27;20079;-31
2022/11/23 00:52:00;;;;;;;3.33;0.90;;;17.50;67.20;;;;;;10575957;27;20480;-30
2022/11/23 00:57:04;;;;;;;3.43;1.53;;;17.90;65.80;;;;;;10576231;27;20051;-31
2022/11/23 01:02:05;;;;;;;10.05;2.80;;;17.60;66.50;;;;;;10575256;27;20766;-29
2022/11/23 01:07:07;;;;;;;7.97;2.90;;;15.10;83.30;;;;;;10570482;27;20139;-29
2022/11/23 01:12:10;;;;;;;4.97;1.30;;;16.00;74.90;;;;;;10571140;27;20058;-30
2022/11/23 01:17:12;;;;;;;5.65;1.90;;;15.70;78.10;;;;;;10581891;27;20078;-30
2022/11/23 01:22:14;;;;;;;3.07;1.30;;;16.70;72.70;;;;;;10573654;27;20076;-34
2022/11/23 01:27:17;;;;;;;9.53;2.60;;;16.40;76.30;;;;;;10573642;27;20044;-30
2022/11/23 01:32:19;;;;;;;8.57;2.13;;;15.10;80.40;;;;;;10583832;27;20178;-31
2022/11/23 01:37:21;;;;;;;8.13;2.10;;;15.20;79.70;;;;;;10576448;27;20051;-29
2022/11/23 01:42:39;;;;;;;7.67;2.47;;;15.90;76.80;;;;;;10577506;27;20471;-30
2022/11/23 01:47:41;;;;;;;4.78;1.60;;;14.90;82.40;;;;;;10578962;27;20083;-30
2022/11/23 01:52:43;;;;;;;3.23;1.83;;;14.80;87.30;;;;;;10575130;27;20074;-29
2022/11/23 01:57:46;;;;;;;4.13;1.83;;;16.00;79.70;;;;;;10577931;27;20514;-30
2022/11/23 02:02:53;;;;;;;5.05;1.50;;;16.60;72.30;;;;;;10569488;27;20048;-37
2022/11/23 02:07:56;;;;;;;11.40;3.30;;;16.90;71.10;;;;;;10564646;28;20446;-31
2022/11/23 02:13:04;;;;;;;9.70;2.80;;;15.90;73.90;;;;;;10563240;27;20079;-30
2022/11/23 02:18:12;;;;;;;5.75;2.03;;;14.60;85.70;;;;;;10582914;27;20404;-29
2022/11/23 02:23:24;;;;;;;4.00;1.25;;;15.70;77.20;;;;;;10582033;27;20039;-33
2022/11/23 02:28:32;;;;;;;5.47;1.73;;;16.70;73.50;;;;;;10574997;27;20044;-27
2022/11/23 02:33:36;;;;;;;3.67;1.70;;;15.40;83.30;;;;;;10574674;28;20048;-30
2022/11/23 02:38:38;;;;;;;4.88;2.22;;;16.00;77.70;;;;;;10575421;27;20100;-27
2022/11/23 02:43:42;;;;;;;4.47;2.33;;;15.60;80.60;;;;;;10565323;27;20533;-29
2022/11/23 02:48:44;;;;;;;3.63;1.33;;;15.90;77.60;;;;;;10583832;27;20075;-31
2022/11/23 02:53:45;;;;;;;5.07;1.87;;;16.50;74.90;;;;;;10574499;27;20100;-28
2022/11/23 02:58:49;;;;;;;3.83;1.70;;;15.90;77.60;;;;;;10580064;27;20112;-31
2022/11/23 03:03:51;;;;;;;3.72;1.48;;;16.70;73.10;;;;;;10571693;27;20047;-32
2022/11/23 03:08:52;;;;;;;1.77;1.20;;;17.10;70.30;;;;;;10581194;27;20132;-32
2022/11/23 03:13:56;;;;;;;3.13;1.23;;;17.90;65.30;;;;;;10565601;28;20139;-30
2022/11/23 03:18:58;;;;;;;3.50;2.20;;;18.10;63.70;;;;;;10580785;28;20501;-33
2022/11/23 03:23:59;;;;;;;2.27;1.23;;;18.00;64.30;;;;;;10578395;28;20047;-32
2022/11/23 03:29:03;;;;;;;4.25;1.17;;;18.10;64.10;;;;;;10578989;27;20477;-31
2022/11/23 03:34:05;;;;;;;3.05;1.63;;;17.90;64.60;;;;;;10581381;27;20482;-29
2022/11/23 03:39:07;;;;;;;4.67;1.77;;;18.00;64.00;;;;;;10582103;27;20051;-33
2022/11/23 03:44:10;;;;;;;1.77;1.20;;;18.00;64.30;;;;;;10581569;27;20055;-30
2022/11/23 03:49:12;;;;;;;5.55;3.90;;;18.00;64.30;;;;;;10589971;27;20132;-31
2022/11/23 03:54:14;;;;;;;4.88;2.10;;;16.70;67.70;;;;;;10591830;27;20067;-30
2022/11/23 03:59:17;;;;;;;7.83;4.03;;;17.60;66.90;;;;;;10579909;27;20043;-30
2022/11/23 04:04:19;;;;;;;6.15;3.10;;;17.50;66.40;;;;;;10581428;27;20533;-31
2022/11/23 04:09:22;;;;;;;2.92;1.55;;;15.30;79.70;;;;;;10581763;27;20047;-31
2022/11/23 04:14:25;;;;;;;3.58;2.92;;;17.00;71.60;;;;;;10570612;27;20055;-29
2022/11/23 04:19:27;;;;;;;5.32;2.28;;;16.50;71.80;;;;;;10573749;27;20043;-29
2022/11/23 04:24:29;;;;;;;2.73;1.80;;;17.00;69.70;;;;;;10579438;27;20130;-31
2022/11/23 04:29:32;;;;;;;5.40;3.57;;;16.60;73.10;;;;;;10577161;27;20126;-32
2022/11/23 04:34:34;;;;;;;6.57;3.47;;;16.70;72.60;;;;;;10577118;27;20047;-31
2022/11/23 04:39:36;;;;;;;3.53;2.50;;;15.70;78.30;;;;;;10582877;27;20046;-30
2022/11/23 04:44:39;;;;;;;6.50;2.03;;;15.30;82.30;;;;;;10578543;28;20514;-33
2022/11/23 04:49:41;;;;;;;2.17;1.73;;;16.80;73.50;;;;;;10579498;27;20063;-30
2022/11/23 04:54:43;;;;;;;3.43;1.73;;;17.80;65.90;;;;;;10582330;27;20109;-33
2022/11/23 04:59:46;;;;;;;3.30;2.37;;;17.70;65.90;;;;;;10580549;27;20039;-36
2022/11/23 05:04:48;;;;;;;3.58;1.88;;;17.40;68.00;;;;;;10575221;28;20043;-32
2022/11/23 05:09:50;;;;;;;2.87;1.60;;;18.00;64.70;;;;;;10575886;28;20047;-31
2022/11/23 05:14:53;;;;;;;3.35;1.63;;;17.80;64.50;;;;;;10573826;27;20370;-29
2022/11/23 05:19:55;;;;;;;1.88;1.55;;;17.80;65.30;;;;;;10577662;27;20134;-29
2022/11/23 05:24:57;;;;;;;6.43;2.15;;;17.60;66.50;;;;;;10567125;27;20051;-30
2022/11/23 05:30:00;;;;;;;6.55;2.13;;;17.80;64.30;;;;;;10584247;27;20138;-30
2022/11/23 05:35:02;;;;;;;2.05;1.40;;;17.50;63.30;;;;;;10575481;28;20047;-33
2022/11/23 05:40:05;;;;;;;2.00;1.20;;;18.10;63.70;;;;;;10576613;27;20052;-36
2022/11/23 05:45:09;;;;;;;3.15;1.33;;;18.20;63.20;;;;;;10573769;27;20391;-28
2022/11/23 05:50:11;;;;;;;2.63;1.42;;;17.90;64.10;;;;;;10566219;28;20429;-32
2022/11/23 05:55:13;;;;;;;4.43;1.30;;;18.40;62.60;;;;;;10574467;27;20096;-32
2022/11/23 06:00:18;;;;;;;4.05;1.30;;;18.40;62.40;;;;;;10592681;27;20481;-31
2022/11/23 06:05:20;;;;;;;1.92;1.10;;;18.40;62.80;;;;;;10595916;27;20100;-29
2022/11/23 06:10:22;;;;;;;1.85;1.20;;;18.40;62.60;;;;;;10574358;27;20071;-32
2022/11/23 06:15:25;;;;;;;2.65;1.50;;;18.40;62.80;;;;;;10577343;27;20550;-30
2022/11/23 06:20:27;;;;;;;3.28;1.17;;;18.10;64.20;;;;;;10573465;27;20043;-30
2022/11/23 06:25:29;;;;;;;1.35;0.95;;;18.30;63.30;;;;;;10565474;27;20074;-29
2022/11/23 06:30:32;;;;;;;2.67;1.05;;;18.40;62.80;;;;;;10579783;27;20124;-29
2022/11/23 06:35:34;;;;;;;6.60;1.42;;;18.40;62.60;;;;;;10571795;27;20083;-31
2022/11/23 06:40:36;;;;;;;1.75;1.05;;;18.40;62.90;;;;;;10563390;27;20048;-30
2022/11/23 06:45:39;;;;;;;3.35;1.10;;;18.40;63.20;;;;;;10573649;27;20051;-32
2022/11/23 06:50:41;;;;;;;3.40;1.10;;;18.50;62.60;;;;;;10574549;27;20091;-29
2022/11/23 06:55:43;;;;;;;5.90;1.00;;;18.30;63.70;;;;;;10573878;27;20051;-27
2022/11/23 07:00:46;;;;;;;8.63;1.33;;;18.40;63.30;;;;;;10570463;27;20079;-31
2022/11/23 07:15:27;;;;;;;4.22;1.00;;;18.40;62.30;;;;;;10424107;27;2087006;-27
2022/11/23 07:20:29;;;;;;;2.13;1.08;;;18.50;62.80;;;;;;10475322;28;20036;-34
2022/11/23 07:25:32;;;;;;;2.93;1.20;;;18.50;62.80;;;;;;10458492;28;20060;-30
2022/11/23 07:30:36;;;;;;;4.57;1.60;;;18.70;62.30;;;;;;10464897;28;20040;-31
2022/11/23 07:35:39;;;;;;;15.48;1.38;;;18.60;62.10;;;;;;10464899;28;20474;-29
2022/11/23 07:40:41;;;;;;;7.13;1.15;;;18.30;63.70;;;;;;10456133;28;20072;-31
2022/11/23 07:45:44;;;;;;;3.40;1.15;;;18.10;63.90;;;;;;10458734;28;20084;-30
2022/11/23 07:50:46;;;;;;;3.72;1.70;;;18.40;63.90;;;;;;10459544;28;20051;-29
2022/11/23 07:55:48;;;;;;;6.10;1.48;;;18.20;63.90;;;;;;10477668;28;20045;-31
2022/11/23 08:00:52;;;;;;;6.03;1.43;;;17.80;62.50;;;;;;10461987;28;20088;-30
2022/11/23 08:05:53;;;;;;;7.28;1.58;;;17.50;67.10;;;;;;10445930;28;20587;-30
2022/11/23 08:10:55;;;;;;;3.70;1.40;;;17.60;66.30;;;;;;10456638;28;20052;-29
2022/11/23 08:15:59;;;;;;;11.18;1.23;;;18.30;63.80;;;;;;10446470;28;20139;-29
2022/11/23 08:21:01;;;;;;;4.78;1.45;;;18.50;62.60;;;;;;10462205;28;20226;-27
2022/11/23 08:26:03;;;;;;;4.25;1.13;;;18.60;62.40;;;;;;10439370;28;20103;-30
2022/11/23 08:31:08;;;;;;;8.70;1.63;;;18.80;61.40;;;;;;10437206;28;20136;-31
2022/11/23 08:36:09;;;;;;;4.25;1.20;;;18.70;61.40;;;;;;10435541;28;20049;-33
2022/11/23 08:41:11;;;;;;;3.47;1.63;;;18.60;61.20;;;;;;10438231;28;20095;-30
2022/11/23 08:46:15;;;;;;;5.32;1.08;;;18.70;61.20;;;;;;10434377;28;20073;-33
2022/11/23 08:51:21;;;;;;;3.78;1.40;;;18.80;60.90;;;;;;10427499;28;20131;-29
2022/11/23 08:56:23;;;;;;;4.20;1.05;;;18.70;60.90;;;;;;10431071;28;20065;-30
2022/11/23 09:01:26;;;;;;;3.35;1.25;;;18.60;61.20;;;;;;10441249;28;20045;-33
2022/11/23 09:06:28;;;;;;;6.78;1.42;;;18.70;60.70;;;;;;10425644;28;20137;-31
2022/11/23 09:11:30;;;;;;;3.03;1.27;;;18.50;61.20;;;;;;10445313;28;20103;-30
2022/11/23 09:16:33;;;;;;;10.45;1.88;;;18.50;61.20;;;;;;10434648;28;20792;-29
2022/11/23 09:21:38;;;;;;;6.25;1.98;;;18.70;60.10;;;;;;10441028;28;20046;-30
2022/11/23 09:26:40;;;;;;;4.95;1.90;;;18.50;60.10;;;;;;10433663;28;20095;-28
2022/11/23 09:31:44;;;;;;;9.15;1.50;;;18.60;59.70;;;;;;10427236;28;20056;-36
2022/11/23 09:36:46;;;;;;;6.18;1.30;;;18.40;60.30;;;;;;10416847;28;20160;-28
2022/11/23 09:42:13;;;;;;;10.20;1.63;;;18.10;61.40;;;;;;10424920;28;20115;-29
2022/11/23 09:47:32;;;;;;;6.53;1.45;;;18.50;59.10;;;;;;10432084;28;20574;-30
2022/11/23 09:52:35;;;;;;;8.85;1.95;;;18.30;58.60;;;;;;10436842;28;20048;-33
2022/11/23 09:57:41;;;;;;;9.68;2.05;;;18.20;59.50;;;;;;10431347;28;20046;-29
2022/11/23 10:02:44;;;;;;;4.80;1.35;;;17.40;55.80;;;;;;10435367;28;20080;-32
2022/11/23 10:08:02;;;;;;;12.65;1.75;;;17.90;60.20;;;;;;10426198;28;20056;-30
2022/11/23 10:13:26;;;;;;;3.85;1.02;;;17.70;60.80;;;;;;10432765;28;20052;-31
2022/11/23 10:18:40;;;;;;;9.70;1.40;;;18.10;59.40;;;;;;10438410;28;20061;-29
2022/11/23 10:23:52;;;;;;;4.55;1.38;;;18.20;59.30;;;;;;10429656;28;20046;-31
2022/11/23 10:28:56;;;;;;;7.32;1.40;;;18.10;59.60;;;;;;10427354;28;20053;-31
2022/11/23 10:34:08;;;;;;;4.88;0.82;;;18.10;58.90;;;;;;10426477;28;20085;-29
2022/11/23 10:39:18;;;;;;;3.17;0.60;;;18.20;58.80;;;;;;10436338;28;20071;-31
2022/11/23 10:44:31;;;;;;;2.75;1.00;;;18.20;59.10;;;;;;10439521;28;20442;-29
2022/11/23 10:49:35;;;;;;;8.90;1.73;;;18.30;58.40;;;;;;10433023;28;20164;-36
2022/11/23 10:54:51;;;;;;;7.03;1.60;;;18.40;58.20;;;;;;10433158;28;20083;-33
2022/11/23 11:00:01;;;;;;;4.78;1.17;;;18.50;57.70;;;;;;10431403;28;20049;-32
2022/11/23 11:05:23;;;;;;;4.10;1.33;;;18.40;58.20;;;;;;10429869;28;20445;-33
2022/11/23 11:10:35;;;;;;;4.03;1.40;;;18.40;58.10;;;;;;10434261;28;20102;-29
2022/11/23 11:15:37;;;;;;;7.07;0.90;;;18.20;58.50;;;;;;10438047;28;20053;-30
2022/11/23 11:20:45;;;;;;;6.00;1.60;;;18.50;57.60;;;;;;10430875;28;20107;-34
2022/11/23 11:25:48;;;;;;;3.55;1.10;;;18.20;58.20;;;;;;10427490;28;20045;-30
2022/11/23 11:30:59;;;;;;;4.60;1.52;;;18.40;57.50;;;;;;10427517;28;20049;-33
2022/11/23 11:36:06;;;;;;;2.95;0.80;;;18.30;57.50;;;;;;10425558;28;20050;-30
2022/11/23 11:41:10;;;;;;;5.53;1.35;;;18.20;58.50;;;;;;10412383;28;20594;-31
2022/11/23 11:46:14;;;;;;;7.07;1.23;;;18.00;58.30;;;;;;10431719;28;20045;-31
2022/11/23 11:51:23;;;;;;;4.90;0.93;;;18.10;58.70;;;;;;10431277;28;20564;-29
2022/11/23 11:56:30;;;;;;;3.30;1.17;;;18.50;57.40;;;;;;10434913;28;20095;-29
2022/11/23 12:01:36;;;;;;;6.25;1.23;;;18.50;57.50;;;;;;10430662;28;20235;-31
2022/11/23 12:06:44;;;;;;;5.63;1.50;;;18.30;57.30;;;;;;10422340;28;20047;-31
2022/11/23 12:11:46;;;;;;;4.03;1.10;;;18.30;57.80;;;;;;10431460;28;20089;-32
2022/11/23 12:16:57;;;;;;;4.75;0.90;;;18.50;57.10;;;;;;10436579;28;20068;-31
2022/11/23 12:22:25;;;;;;;10.90;1.27;;;18.10;58.20;;;;;;10437466;28;20037;-32
2022/11/23 12:27:38;;;;;;;2.58;1.10;;;18.40;57.40;;;;;;10433664;28;20071;-31
2022/11/23 12:32:51;;;;;;;3.83;0.90;;;18.40;58.00;;;;;;10428546;28;20079;-33
2022/11/23 12:38:00;;;;;;;;;;;18.30;58.40;;;;;;10443757;28;20055;-30
2022/11/23 12:43:05;;;;;;;6.43;1.70;;;18.10;59.20;;;;;;10432059;28;19970;-30
2022/11/23 12:48:25;;;;;;;4.55;1.52;;;18.50;58.10;;;;;;10423799;28;20053;-30
2022/11/23 12:53:41;;;;;;;4.43;1.02;;;18.50;57.70;;;;;;10436001;28;20060;-32
2022/11/23 12:58:46;;;;;;;5.50;1.08;;;18.50;57.90;;;;;;10439717;28;20090;-31
2022/11/23 13:04:26;;;;;;;6.65;1.00;;;18.60;57.80;;;;;;10433012;28;20131;-32
2022/11/23 13:09:46;;;;;;;4.88;1.00;;;19.10;57.10;;;;;;10438120;28;20094;-32
2022/11/23 13:15:01;;;;;;;2.55;1.00;;;19.30;56.70;;;;;;10441703;28;20111;-30
2022/11/23 13:20:24;;;;;;;3.17;0.90;;;19.10;57.40;;;;;;10431121;28;20168;-28
2022/11/23 13:25:29;;;;;;;5.25;1.45;;;18.80;59.30;;;;;;10430016;28;20132;-31
2022/11/23 13:30:33;;;;;;;6.43;1.02;;;18.60;59.80;;;;;;10423522;28;20044;-31
2022/11/23 13:35:58;;;;;;;3.33;1.20;;;19.00;58.50;;;;;;10425716;28;20056;-32
2022/11/23 13:41:01;;;;;;;5.72;1.20;;;18.60;59.40;;;;;;10439334;28;20111;-31
2022/11/23 13:46:21;;;;;;;6.93;0.93;;;18.70;59.50;;;;;;10435280;28;20072;-30
2022/11/23 13:51:24;;;;;;;1.92;1.00;;;18.80;60.00;;;;;;10439217;28;20048;-31
2022/11/23 13:56:32;;;;;;;3.78;1.15;;;19.20;58.60;;;;;;10425369;28;20045;-29
2022/11/23 14:02:00;;;;;;;3.40;1.13;;;19.40;58.40;;;;;;10435129;28;20102;-30
2022/11/23 14:07:05;;;;;;;3.15;1.08;;;18.20;62.40;;;;;;10425894;28;20100;-30
2022/11/23 14:12:23;;;;;;;2.00;0.80;;;19.10;59.60;;;;;;10431593;28;20107;-29
2022/11/23 14:17:56;;;;;;;5.53;0.95;;;19.20;59.20;;;;;;10419911;28;20091;-31
2022/11/23 14:23:35;;;;;;;3.30;0.88;;;19.10;59.40;;;;;;10420664;28;20448;-30
2022/11/23 14:28:51;;;;;;;2.20;0.52;;;18.90;60.20;;;;;;10420946;28;20107;-32
2022/11/23 14:34:00;;;;;;;3.17;0.82;;;19.30;59.10;;;;;;10436033;28;20434;-28
2022/11/23 14:39:31;;;;;;;3.33;0.70;;;19.00;60.10;;;;;;10421631;28;20045;-32
2022/11/23 14:44:34;;;;;;;2.65;1.00;;;19.30;59.40;;;;;;10425786;28;20041;-29
2022/11/23 14:49:37;;;;;;;4.82;1.02;;;19.10;59.60;;;;;;10423482;28;20132;-33
2022/11/23 14:54:39;;;;;;;3.63;0.77;;;17.90;62.50;;;;;;10434382;28;20088;-30
2022/11/23 14:59:47;;;;;;;2.22;0.73;;;17.80;65.10;;;;;;10430465;28;20089;-30
2022/11/23 15:04:59;;;;;;;4.82;0.82;;;18.50;62.80;;;;;;10420364;28;20076;-34
2022/11/23 15:10:06;;;;;;;4.80;0.60;;;18.80;61.80;;;;;;10430156;28;20505;-30
2022/11/23 15:15:18;;;;;;;2.60;0.73;;;19.10;60.80;;;;;;10433515;28;20126;-30
2022/11/23 15:20:22;;;;;;;2.10;0.60;;;18.90;61.20;;;;;;10418828;28;20101;-30
2022/11/23 15:25:24;;;;;;;5.60;0.77;;;19.10;60.90;;;;;;10425048;28;20785;-28
2022/11/23 15:30:31;;;;;;;6.40;1.25;;;19.10;61.00;;;;;;10423359;28;20100;-30
2022/11/23 15:35:35;;;;;;;2.65;0.98;;;19.00;61.90;;;;;;10433784;28;20110;-30
2022/11/23 15:40:37;;;;;;;2.50;0.95;;;17.30;66.80;;;;;;10447148;28;20049;-34
2022/11/23 15:46:02;;;;;;;3.10;0.57;;;18.80;63.00;;;;;;10440778;28;20335;-29
2022/11/23 15:51:06;;;;;;;2.83;1.00;;;18.70;63.40;;;;;;10430973;28;20057;-30
2022/11/23 15:56:19;;;;;;;4.47;1.45;;;18.20;65.90;;;;;;10441524;28;20274;-28
2022/11/23 16:01:23;;;;;;;3.72;1.35;;;17.80;67.30;;;;;;10436261;28;20106;-34
2022/11/23 16:06:34;;;;;;;5.85;2.42;;;17.50;66.10;;;;;;10430578;28;20053;-30
2022/11/23 16:11:36;;;;;;;8.75;2.00;;;18.20;65.90;;;;;;10439287;28;20048;-36
2022/11/23 16:16:40;;;;;;;5.18;1.80;;;18.30;63.90;;;;;;10427166;28;20441;-36
2022/11/23 16:21:44;;;;;;;2.65;1.50;;;18.40;64.30;;;;;;10438464;28;20093;-30
2022/11/23 16:26:46;;;;;;;8.05;1.65;;;18.70;64.00;;;;;;10432425;28;20068;-31
2022/11/23 16:31:55;;;;;;;5.40;1.60;;;17.90;65.20;;;;;;10443116;28;20077;-30
2022/11/23 16:36:58;;;;;;;7.45;1.77;;;18.30;66.10;;;;;;10422623;28;20055;-31
2022/11/23 16:41:59;;;;;;;5.72;1.50;;;17.00;64.50;;;;;;10436507;28;20060;-31
2022/11/23 16:47:24;;;;;;;5.10;1.30;;;17.10;72.90;;;;;;10438205;28;20498;-32
2022/11/23 16:52:26;;;;;;;3.30;1.52;;;17.30;72.00;;;;;;10429491;28;20516;-30
2022/11/23 16:57:30;;;;;;;2.58;1.52;;;17.50;69.30;;;;;;10420966;28;20123;-34
2022/11/23 17:02:33;;;;;;;5.50;1.83;;;15.10;77.50;;;;;;10437839;28;20539;-30
2022/11/23 17:07:35;;;;;;;3.72;1.65;;;14.90;88.30;;;;;;10436167;28;20055;-30
2022/11/23 17:12:39;;;;;;;4.97;1.65;;;15.70;83.00;;;;;;10435768;28;20498;-32
2022/11/23 17:17:42;;;;;;;5.68;1.85;;;16.50;77.10;;;;;;10430550;28;20045;-31
2022/11/23 17:22:44;;;;;;;3.80;1.40;;;16.50;78.50;;;;;;10437062;28;20095;-29
2022/11/23 17:27:47;;;;;;;3.25;2.00;;;16.40;76.10;;;;;;10426051;28;20044;-31
2022/11/23 17:32:50;;;;;;;4.25;1.60;;;17.70;70.20;;;;;;10434642;28;20053;-37
2022/11/23 17:37:52;;;;;;;3.63;2.00;;;18.20;65.00;;;;;;10434498;28;20052;-32
2022/11/23 17:42:54;;;;;;;6.88;2.13;;;18.30;65.10;;;;;;10421143;28;20045;-30
2022/11/23 17:47:57;;;;;;;5.85;2.42;;;18.20;65.50;;;;;;10428858;28;20053;-31
2022/11/23 17:52:59;;;;;;;4.15;2.15;;;17.00;70.80;;;;;;10419561;28;20156;-31
2022/11/23 17:58:01;;;;;;;8.23;2.05;;;18.30;67.20;;;;;;10426324;28;20423;-34
2022/11/23 18:03:04;;;;;;;4.13;1.77;;;16.50;74.90;;;;;;10426542;28;20076;-29
2022/11/23 18:08:06;;;;;;;6.00;1.92;;;18.10;67.40;;;;;;10436953;28;20048;-30
2022/11/23 18:13:08;;;;;;;4.55;1.63;;;18.30;65.80;;;;;;10429892;28;20616;-30
2022/11/23 18:18:11;;;;;;;4.07;1.27;;;18.80;64.30;;;;;;10421254;28;20086;-31
2022/11/23 18:23:13;;;;;;;5.32;1.65;;;19.00;64.00;;;;;;10426908;28;20049;-31
2022/11/23 18:28:17;;;;;;;6.55;2.08;;;18.40;66.10;;;;;;10426889;28;20044;-30
2022/11/23 18:33:20;;;;;;;8.10;2.50;;;18.30;66.60;;;;;;10426653;28;20140;-30
2022/11/23 18:38:23;;;;;;;18.92;4.85;;;18.70;66.10;;;;;;10430286;28;20042;-35
2022/11/23 18:43:25;;;;;;;18.00;5.68;;;18.80;66.00;;;;;;10416781;28;20509;-37
2022/11/23 18:48:28;;;;;;;22.73;6.35;;;18.40;68.00;;;;;;10431720;28;20092;-31
2022/11/23 18:53:32;;;;;;;18.80;5.22;;;18.10;69.90;;;;;;10422684;28;20041;-32
2022/11/23 18:58:33;;;;;;;16.45;4.93;;;17.80;66.80;;;;;;10423603;28;20110;-30
2022/11/23 19:03:37;;;;;;;14.15;3.38;;;17.30;72.50;;;;;;10431318;28;20122;-30
2022/11/23 19:08:40;;;;;;;12.90;4.47;;;16.30;79.10;;;;;;10427816;28;20053;-29
2022/11/23 19:13:42;;;;;;;12.25;3.22;;;16.10;82.50;;;;;;10421591;28;20142;-29
2022/11/23 19:18:45;;;;;;;15.20;3.10;;;14.90;87.40;;;;;;10428783;28;20076;-30
2022/11/23 19:23:49;;;;;;;15.90;3.40;;;15.70;86.50;;;;;;10421730;28;20569;-32
2022/11/23 19:28:51;;;;;;;10.40;3.42;;;15.00;89.90;;;;;;10431614;28;20064;-31
2022/11/23 19:33:56;;;;;;;;;;;15.20;83.60;;;;;;10424051;28;20537;-30
2022/11/23 19:38:59;;;;;;;11.57;2.25;;;15.60;85.80;;;;;;10426920;28;20467;-30
2022/11/23 19:44:01;;;;;;;6.47;2.88;;;16.00;74.70;;;;;;10419929;28;20049;-29
2022/11/23 19:49:05;;;;;;;5.97;2.35;;;16.60;83.10;;;;;;10429547;28;20128;-31
2022/11/23 19:54:08;;;;;;;15.85;4.15;;;17.00;82.20;;;;;;10430820;28;20053;-29
2022/11/23 19:59:10;;;;;;;8.30;2.28;;;17.20;76.50;;;;;;10429577;28;20037;-29
2022/11/23 20:04:13;;;;;;;10.90;2.57;;;14.70;90.50;;;;;;10430145;28;20057;-31
2022/11/23 20:09:18;;;;;;;11.73;2.35;;;15.00;86.70;;;;;;10420345;28;20530;-30
2022/11/23 20:14:19;;;;;;;14.98;2.85;;;14.80;90.70;;;;;;10418013;28;20146;-30
2022/11/23 20:19:23;;;;;;;12.70;2.20;;;14.60;90.30;;;;;;10425788;28;20057;-31
2022/11/23 20:24:24;;;;;;;11.68;2.45;;;15.10;85.70;;;;;;10431039;28;20049;-31
2022/11/23 20:29:26;;;;;;;19.80;2.58;;;14.70;91.40;;;;;;10420532;28;20045;-31
2022/11/23 20:34:29;;;;;;;12.77;2.60;;;13.50;92.80;;;;;;10426820;28;20497;-31
2022/11/23 20:39:31;;;;;;;9.38;2.22;;;14.50;91.70;;;;;;10422613;28;20049;-34
2022/11/23 20:44:33;;;;;;;4.93;1.70;;;16.40;85.10;;;;;;10433105;28;20076;-30
2022/11/23 20:49:36;;;;;;;5.72;1.50;;;17.50;76.70;;;;;;10422466;28;20056;-35
2022/11/23 20:54:39;;;;;;;6.47;1.95;;;17.70;73.40;;;;;;10424981;28;20486;-30
2022/11/23 20:59:41;;;;;;;8.55;2.38;;;18.40;69.30;;;;;;10426414;28;20126;-29
2022/11/23 21:04:45;;;;;;;15.43;2.85;;;18.40;67.50;;;;;;10426418;28;20056;-31
2022/11/23 21:09:47;;;;;;;12.30;1.70;;;18.20;69.10;;;;;;10424068;28;20136;-32
2022/11/23 21:14:49;;;;;;;15.85;2.92;;;18.10;71.10;;;;;;10427317;28;20500;-31
2022/11/23 21:19:52;;;;;;;8.52;2.20;;;18.40;67.90;;;;;;10422015;28;20053;-30
2022/11/23 21:24:53;;;;;;;10.70;2.00;;;17.40;74.50;;;;;;10417981;28;20127;-35
2022/11/23 21:29:55;;;;;;;12.97;2.60;;;17.30;74.40;;;;;;10423344;28;20558;-31
2022/11/23 21:34:58;;;;;;;9.23;2.38;;;16.50;81.60;;;;;;10422601;28;20056;-30
2022/11/23 21:40:00;;;;;;;19.98;2.97;;;17.30;77.50;;;;;;10430528;28;20123;-28
2022/11/23 21:45:02;;;;;;;7.23;1.93;;;17.60;75.10;;;;;;10434081;28;20460;-31
2022/11/23 21:50:07;;;;;;;15.53;1.93;;;18.10;71.90;;;;;;10426869;28;20049;-32
2022/11/23 21:55:09;;;;;;;8.85;2.30;;;18.40;69.30;;;;;;10428003;28;20595;-30
2022/11/23 22:00:12;;;;;;;18.15;3.47;;;18.70;67.40;;;;;;10445427;28;20074;-30
2022/11/23 22:05:15;;;;;;;7.30;1.75;;;17.40;74.10;;;;;;10427775;28;20712;-28
2022/11/23 22:10:17;;;;;;;13.73;3.55;;;17.30;77.50;;;;;;10436824;28;20485;-30
2022/11/23 22:15:19;;;;;;;7.17;1.93;;;17.00;75.80;;;;;;10428243;28;20061;-31
2022/11/23 22:20:23;;;;;;;14.07;3.22;;;17.10;76.30;;;;;;10424328;28;20479;-32
2022/11/23 22:25:24;;;;;;;20.60;3.67;;;16.40;78.30;;;;;;10419385;28;20053;-28
2022/11/23 22:30:27;;;;;;;19.80;2.70;;;16.40;80.60;;;;;;10427384;28;20052;-30
2022/11/23 22:35:32;;;;;;;19.02;2.50;;;13.60;91.20;;;;;;10419844;28;20444;-30
2022/11/23 22:40:34;;;;;;;16.42;3.25;;;13.20;94.50;;;;;;10415990;28;20064;-31
2022/11/23 22:45:36;;;;;;;16.73;2.55;;;13.00;95.30;;;;;;10404474;28;20052;-30
2022/11/23 22:50:39;;;;;;;14.90;2.40;;;13.70;94.80;;;;;;10412682;28;20037;-28
2022/11/23 22:55:41;;;;;;;9.85;2.45;;;12.60;98.00;;;;;;10432002;28;20083;-31
2022/11/23 23:00:44;;;;;;;9.73;2.63;;;14.90;91.30;;;;;;10431241;28;20057;-30
2022/11/23 23:05:55;;;;;;;10.35;2.28;;;15.90;86.60;;;;;;10436378;28;20056;-30
2022/11/23 23:10:57;;;;;;;9.27;1.60;;;15.60;85.30;;;;;;10413354;28;20053;-26
2022/11/23 23:16:01;;;;;;;6.55;1.67;;;16.10;84.30;;;;;;10421584;28;20045;-30
2022/11/23 23:21:09;;;;;;;12.75;1.98;;;16.80;77.60;;;;;;10424327;28;20071;-30
2022/11/23 23:26:13;;;;;;;19.40;2.50;;;14.10;90.80;;;;;;10435157;28;20057;-28
2022/11/23 23:31:16;;;;;;;11.00;2.20;;;14.10;93.70;;;;;;10444737;28;20502;-30
2022/11/23 23:36:21;;;;;;;3.83;1.40;;;14.90;90.50;;;;;;10432266;28;20458;-28
2022/11/23 23:41:23;;;;;;;8.77;1.95;;;16.90;78.70;;;;;;10429920;28;20045;-29
2022/11/23 23:46:25;;;;;;;7.00;1.60;;;17.40;71.50;;;;;;10428602;28;20392;-30
2022/11/23 23:51:28;;;;;;;8.95;2.58;;;17.10;75.10;;;;;;10442449;28;20068;-30
2022/11/23 23:56:30;;;;;;;12.07;2.55;;;17.50;72.10;;;;;;10437008;28;20053;-30
